Time,TemperatureF,DewpointF,PressureIn,WindDirection,WindDirectionDegrees,WindSpeedMPH,WindSpeedGustMPH,Humidity,HourlyPrecipIn,Conditions,Clouds,dailyrainin,SoftwareType,DateUTC
2013-06-04 00:00:00,50.1,44.2,30.49,WSW,255,2.3,2.3,80,0.00,CLR,,0.00,WeatherDisplay:10.37,2013-06-04 04:00:00,
2013-06-04 00:01:00,50.1,44.2,30.49,WSW,255,2.3,2.3,80,0.00,CLR,,0.00,WeatherDisplay:10.37,2013-06-04 04:01:00,
2013-06-04 00:02:00,50.1,44.2,30.49,West,267,2.3,2.3,80,0.00,CLR,,0.00,WeatherDisplay:10.37,2013-06-04 04:02:00,
2013-06-04 00:07:00,50.0,44.4,30.49,West,274,2.3,2.3,81,0.00,CLR,,0.00,WeatherDisplay:10.37,2013-06-04 04:07:00,
2013-06-04 00:12:00,49.8,44.8,30.49,WNW,283,3.5,3.5,83,0.00,CLR,,0.00,WeatherDisplay:10.37,2013-06-04 04:12:00,
2013-06-04 00:17:00,50.0,45.4,30.49,West,259,5.8,5.8,84,0.00,CLR,,0.00,WeatherDisplay:10.37,2013-06-04 04:17:00,
2013-06-04 00:22:00,50.2,45.6,30.49,West,269,3.5,3.5,84,0.00,CLR,,0.00,WeatherDisplay:10.37,2013-06-04 04:22:00,
2013-06-04 00:27:00,50.2,45.6,30.49,WNW,282,4.0,4.0,84,0.00,CLR,,0.00,WeatherDisplay:10.37,2013-06-04 04:27:00,
2013-06-04 00:32:00,50.3,45.6,30.49,West,266,3.5,3.5,84,0.00,CLR,,0.00,WeatherDisplay:10.37,2013-06-04 04:32:00,
2013-06-04 00:37:00,50.2,45.6,30.49,West,269,3.5,3.5,84,0.00,CLR,,0.00,WeatherDisplay:10.37,2013-06-04 04:37:00,
2013-06-04 00:42:00,50.2,45.6,30.50,West,271,3.5,3.5,84,0.00,CLR,,0.00,WeatherDisplay:10.37,2013-06-04 04:42:00,
2013-06-04 00:47:00,50.2,45.6,30.50,West,276,6.0,6.0,84,0.00,CLR,,0.00,WeatherDisplay:10.37,2013-06-04 04:47:00,
2013-06-04 00:52:00,50.3,45.6,30.50,West,281,4.6,4.6,84,0.00,CLR,,0.00,WeatherDisplay:10.37,2013-06-04 04:52:00,
2013-06-04 00:57:00,50.1,45.5,30.50,West,281,4.6,4.6,84,0.00,CLR,,0.00,WeatherDisplay:10.37,2013-06-04 04:57:00,
2013-06-04 01:02:00,50.0,45.4,30.50,West,274,4.6,4.6,84,0.00,CLR,,0.00,WeatherDisplay:10.37,2013-06-04 05:02:00,
2013-06-04 01:07:00,49.9,45.3,30.50,WNW,298,2.3,2.3,84,0.00,CLR,,0.00,WeatherDisplay:10.37,2013-06-04 05:07:00,
2013-06-04 01:12:00,49.7,45.4,30.50,West,280,3.5,3.5,85,0.00,CLR,,0.00,WeatherDisplay:10.37,2013-06-04 05:12:00,
2013-06-04 01:17:00,49.7,45.4,30.50,WNW,291,3.5,3.5,85,0.00,CLR,,0.00,WeatherDisplay:10.37,2013-06-04 05:17:00,
2013-06-04 01:22:00,49.6,45.3,30.50,WNW,283,5.0,5.0,85,0.00,CLR,,0.00,WeatherDisplay:10.37,2013-06-04 05:22:00,
2013-06-04 01:27:00,49.5,45.2,30.50,West,280,4.6,4.6,85,0.00,CLR,,0.00,WeatherDisplay:10.37,2013-06-04 05:27:00,
2013-06-04 01:32:00,49.5,45.2,30.51,WNW,302,3.5,3.5,85,0.00,CLR,,0.00,WeatherDisplay:10.37,2013-06-04 05:32:00,
2013-06-04 01:37:00,49.5,45.2,30.51,WNW,291,3.5,3.5,85,0.00,CLR,,0.00,WeatherDisplay:10.37,2013-06-04 05:37:00,
2013-06-04 01:43:00,49.4,45.1,30.51,WNW,295,3.5,3.5,85,0.00,CLR,,0.00,WeatherDisplay:10.37,2013-06-04 05:43:00,
2013-06-04 01:48:00,49.3,45.0,30.51,WNW,302,3.5,3.5,85,0.00,CLR,,0.00,WeatherDisplay:10.37,2013-06-04 05:48:00,
2013-06-04 01:53:00,49.1,45.1,30.51,NW,307,3.5,3.5,86,0.00,CLR,,0.00,WeatherDisplay:10.37,2013-06-04 05:53:00,
2013-06-04 01:58:00,49.0,45.0,30.51,WNW,302,3.5,3.5,86,0.00,CLR,,0.00,WeatherDisplay:10.37,2013-06-04 05:58:00,
2013-06-04 02:03:00,48.9,45.2,30.51,NW,308,2.3,2.3,87,0.00,CLR,,0.00,WeatherDisplay:10.37,2013-06-04 06:03:00,
2013-06-04 02:08:00,48.7,45.0,30.51,WNW,292,1.2,1.2,87,0.00,CLR,,0.00,WeatherDisplay:10.37,2013-06-04 06:08:00,
2013-06-04 02:13:00,48.6,44.9,30.51,NW,304,2.3,2.3,87,0.00,CLR,,0.00,WeatherDisplay:10.37,2013-06-04 06:13:00,
2013-06-04 02:18:00,48.6,44.9,30.51,WNW,300,0.0,0.0,87,0.00,CLR,,0.00,WeatherDisplay:10.37,2013-06-04 06:18:00,
2013-06-04 02:23:00,48.5,44.8,30.51,WNW,301,1.2,1.2,87,0.00,CLR,,0.00,WeatherDisplay:10.37,2013-06-04 06:23:00,
2013-06-04 02:28:00,48.4,44.7,30.52,WNW,301,1.2,1.2,87,0.00,CLR,,0.00,WeatherDisplay:10.37,2013-06-04 06:28:00,
2013-06-04 02:33:00,48.3,44.6,30.52,WNW,299,2.3,2.3,87,0.00,CLR,,0.00,WeatherDisplay:10.37,2013-06-04 06:33:00,
2013-06-04 02:38:00,48.0,44.3,30.52,WNW,288,1.2,1.2,87,0.00,CLR,,0.00,WeatherDisplay:10.37,2013-06-04 06:38:00,
2013-06-04 02:43:00,47.9,44.2,30.52,West,276,2.3,2.3,87,0.00,CLR,,0.00,WeatherDisplay:10.37,2013-06-04 06:43:00,
2013-06-04 02:48:00,48.0,44.3,30.52,WNW,290,3.5,3.5,87,0.00,CLR,,0.00,WeatherDisplay:10.37,2013-06-04 06:48:00,
2013-06-04 02:53:00,48.0,44.3,30.52,WNW,296,2.3,2.3,87,0.00,CLR,,0.00,WeatherDisplay:10.37,2013-06-04 06:53:00,
2013-06-04 02:58:00,48.2,44.2,30.52,WNW,298,2.3,2.3,86,0.00,CLR,,0.00,WeatherDisplay:10.37,2013-06-04 06:58:00,
2013-06-04 03:03:00,48.0,44.0,30.52,NW,309,3.0,3.0,86,0.00,CLR,,0.00,WeatherDisplay:10.37,2013-06-04 07:03:00,
2013-06-04 03:08:00,48.0,44.0,30.52,WNW,285,3.5,3.5,86,0.00,CLR,,0.00,WeatherDisplay:10.37,2013-06-04 07:08:00,
2013-06-04 03:13:00,48.0,44.0,30.52,WNW,299,3.5,3.5,86,0.00,CLR,,0.00,WeatherDisplay:10.37,2013-06-04 07:13:00,
2013-06-04 03:18:00,48.0,43.7,30.52,WNW,295,3.5,3.5,85,0.00,CLR,,0.00,WeatherDisplay:10.37,2013-06-04 07:18:00,
2013-06-04 03:23:00,48.1,43.8,30.52,WNW,295,3.5,3.5,85,0.00,CLR,,0.00,WeatherDisplay:10.37,2013-06-04 07:23:00,
2013-06-04 03:28:00,48.1,43.5,30.52,WNW,297,6.9,6.9,84,0.00,CLR,,0.00,WeatherDisplay:10.37,2013-06-04 07:28:00,
2013-06-04 03:33:00,48.4,43.5,30.52,WNW,293,4.6,4.6,83,0.00,CLR,,0.00,WeatherDisplay:10.37,2013-06-04 07:33:00,
2013-06-04 03:38:00,48.4,43.5,30.52,WNW,293,4.6,4.6,83,0.00,CLR,,0.00,WeatherDisplay:10.37,2013-06-04 07:38:00,
2013-06-04 03:43:00,48.2,43.3,30.52,WNW,293,3.5,3.5,83,0.00,CLR,,0.00,WeatherDisplay:10.37,2013-06-04 07:43:00,
2013-06-04 03:48:00,48.0,43.4,30.52,WNW,285,3.5,3.5,84,0.00,CLR,,0.00,WeatherDisplay:10.37,2013-06-04 07:48:00,
2013-06-04 03:53:00,47.8,43.2,30.52,WNW,293,3.5,3.5,84,0.00,CLR,,0.00,WeatherDisplay:10.37,2013-06-04 07:53:00,
2013-06-04 03:58:00,47.8,43.2,30.52,West,280,6.0,6.0,84,0.00,CLR,,0.00,WeatherDisplay:10.37,2013-06-04 07:58:00,
2013-06-04 04:03:00,47.8,43.2,30.52,NW,306,5.0,5.0,84,0.00,CLR,,0.00,WeatherDisplay:10.37,2013-06-04 08:03:00,
2013-06-04 04:08:00,48.0,43.4,30.52,NW,310,5.8,5.8,84,0.00,CLR,,0.00,WeatherDisplay:10.37,2013-06-04 08:08:00,
2013-06-04 04:13:00,48.0,43.1,30.52,WNW,297,6.9,6.9,83,0.00,CLR,,0.00,WeatherDisplay:10.37,2013-06-04 08:13:00,
2013-06-04 04:18:00,48.0,43.1,30.53,WNW,286,4.6,4.6,83,0.00,CLR,,0.00,WeatherDisplay:10.37,2013-06-04 08:18:00,
2013-06-04 04:23:00,48.0,43.1,30.53,West,280,4.6,4.6,83,0.00,CLR,,0.00,WeatherDisplay:10.37,2013-06-04 08:23:00,
2013-06-04 04:28:00,48.0,42.8,30.53,WNW,288,3.5,3.6,82,0.00,CLR,,0.00,WeatherDisplay:10.37,2013-06-04 08:28:00,
2013-06-04 04:33:00,47.9,42.7,30.53,WNW,285,3.5,3.5,82,0.00,CLR,,0.00,WeatherDisplay:10.37,2013-06-04 08:33:00,
2013-06-04 04:38:00,47.7,42.8,30.53,WNW,293,3.5,3.5,83,0.00,CLR,,0.00,WeatherDisplay:10.37,2013-06-04 08:38:00,
2013-06-04 04:43:00,47.4,42.5,30.53,NW,309,3.5,3.5,83,0.00,CLR,,0.00,WeatherDisplay:10.37,2013-06-04 08:43:00,
2013-06-04 04:48:00,47.2,42.6,30.53,WNW,290,3.5,3.5,84,0.00,CLR,,0.00,WeatherDisplay:10.37,2013-06-04 08:48:00,
2013-06-04 04:54:00,47.0,42.4,30.53,WNW,285,2.3,2.3,84,0.00,CLR,,0.00,WeatherDisplay:10.37,2013-06-04 08:54:00,
2013-06-04 04:59:00,46.8,42.5,30.53,WNW,285,3.5,3.5,85,0.00,CLR,,0.00,WeatherDisplay:10.37,2013-06-04 08:59:00,
2013-06-04 05:04:00,46.7,42.4,30.53,West,273,2.3,2.3,85,0.00,CLR,,0.00,WeatherDisplay:10.37,2013-06-04 09:04:00,
2013-06-04 05:09:00,46.6,42.6,30.53,West,279,3.5,3.5,86,0.00,CLR,,0.00,WeatherDisplay:10.37,2013-06-04 09:09:00,
2013-06-04 05:14:00,46.5,42.5,30.53,WSW,250,3.5,3.5,86,0.00,CLR,,0.00,WeatherDisplay:10.37,2013-06-04 09:14:00,
2013-06-04 05:19:00,46.4,43.0,30.54,West,275,3.5,3.5,88,0.00,CLR,,0.00,WeatherDisplay:10.37,2013-06-04 09:19:00,
2013-06-04 05:24:00,46.3,42.9,30.54,WNW,289,3.5,3.5,88,0.00,CLR,,0.00,WeatherDisplay:10.37,2013-06-04 09:24:00,
2013-06-04 05:29:00,46.2,43.1,30.54,WNW,283,4.0,4.0,89,0.00,CLR,,0.00,WeatherDisplay:10.37,2013-06-04 09:29:00,
2013-06-04 05:34:00,46.3,43.5,30.55,WNW,289,5.8,5.8,90,0.00,CLR,,0.00,WeatherDisplay:10.37,2013-06-04 09:34:00,
2013-06-04 05:39:00,46.4,43.3,30.55,West,281,4.6,4.6,89,0.00,CLR,,0.00,WeatherDisplay:10.37,2013-06-04 09:39:00,
2013-06-04 05:44:00,46.4,43.3,30.55,WNW,283,5.8,5.8,89,0.00,CLR,,0.00,WeatherDisplay:10.37,2013-06-04 09:44:00,
2013-06-04 05:49:00,46.5,43.1,30.55,WNW,284,5.8,5.8,88,0.00,CLR,,0.00,WeatherDisplay:10.37,2013-06-04 09:49:00,
2013-06-04 05:54:00,46.7,43.0,30.55,WNW,283,5.8,5.8,87,0.00,CLR,,0.00,WeatherDisplay:10.37,2013-06-04 09:54:00,
2013-06-04 05:59:00,46.9,43.2,30.55,NW,312,5.0,5.0,87,0.00,CLR,,0.00,WeatherDisplay:10.37,2013-06-04 09:59:00,
2013-06-04 06:04:00,47.3,42.7,30.55,WNW,282,8.1,8.1,84,0.00,CLR,,0.00,WeatherDisplay:10.37,2013-06-04 10:04:00,
2013-06-04 06:09:00,47.6,42.7,30.55,WNW,300,5.8,5.8,83,0.00,CLR,,0.00,WeatherDisplay:10.37,2013-06-04 10:09:00,
2013-06-04 06:14:00,48.0,42.8,30.56,NW,317,6.9,6.9,82,0.00,CLR,,0.00,WeatherDisplay:10.37,2013-06-04 10:14:00,
2013-06-04 06:19:00,48.2,42.6,30.55,NW,304,3.5,3.5,81,0.00,CLR,,0.00,WeatherDisplay:10.37,2013-06-04 10:19:00,
2013-06-04 06:24:00,48.5,42.6,30.55,WNW,296,3.5,3.5,80,0.00,CLR,,0.00,WeatherDisplay:10.37,2013-06-04 10:24:00,
2013-06-04 06:29:00,48.8,42.2,30.55,WNW,302,5.8,5.8,78,0.00,CLR,,0.00,WeatherDisplay:10.37,2013-06-04 10:29:00,
2013-06-04 06:34:00,49.0,42.1,30.56,WNW,295,6.9,6.9,77,0.00,CLR,,0.00,WeatherDisplay:10.37,2013-06-04 10:34:00,
2013-06-04 06:39:00,49.3,42.4,30.56,WNW,301,2.3,2.3,77,0.00,CLR,,0.00,WeatherDisplay:10.37,2013-06-04 10:39:00,
2013-06-04 06:44:00,49.5,42.6,30.56,WNW,295,4.6,4.6,77,0.00,CLR,,0.00,WeatherDisplay:10.37,2013-06-04 10:44:00,
2013-06-04 06:49:00,49.7,42.4,30.56,WNW,290,4.0,4.0,76,0.00,CLR,,0.00,WeatherDisplay:10.37,2013-06-04 10:49:00,
2013-06-04 06:54:00,50.0,42.0,30.56,NW,307,4.6,4.6,74,0.00,CLR,,0.00,WeatherDisplay:10.37,2013-06-04 10:54:00,
2013-06-04 06:59:00,50.2,42.2,30.56,WNW,285,4.6,4.6,74,0.00,CLR,,0.00,WeatherDisplay:10.37,2013-06-04 10:59:00,
2013-06-04 07:04:00,50.5,42.5,30.56,West,273,4.6,4.6,74,0.00,FEW,,0.00,WeatherDisplay:10.37,2013-06-04 11:04:00,
2013-06-04 07:09:00,50.7,42.0,30.56,WNW,300,8.1,8.1,72,0.00,FEW,,0.00,WeatherDisplay:10.37,2013-06-04 11:09:00,
2013-06-04 07:14:00,51.0,42.3,30.56,West,262,6.9,6.9,72,0.00,FEW,,0.00,WeatherDisplay:10.37,2013-06-04 11:14:00,
2013-06-04 07:19:00,51.2,42.1,30.57,WNW,300,7.0,7.0,71,0.00,FEW,,0.00,WeatherDisplay:10.37,2013-06-04 11:19:00,
2013-06-04 07:24:00,51.5,42.8,30.57,NW,306,4.6,4.6,72,0.00,FEW,,0.00,WeatherDisplay:10.37,2013-06-04 11:24:00,
2013-06-04 07:29:00,51.8,41.9,30.57,NW,321,6.0,6.0,69,0.00,FEW,,0.00,WeatherDisplay:10.37,2013-06-04 11:29:00,
2013-06-04 07:34:00,52.0,42.1,30.57,NW,321,6.9,6.9,69,0.00,FEW,,0.00,WeatherDisplay:10.37,2013-06-04 11:34:00,
2013-06-04 07:39:00,52.2,42.7,30.58,West,272,5.8,5.8,70,0.00,FEW,,0.00,WeatherDisplay:10.37,2013-06-04 11:39:00,
2013-06-04 07:44:00,52.7,42.8,30.58,WNW,286,7.0,7.0,69,0.00,FEW,,0.00,WeatherDisplay:10.37,2013-06-04 11:44:00,
2013-06-04 07:49:00,52.7,42.0,30.58,NNW,328,8.1,8.1,67,0.00,FEW,,0.00,WeatherDisplay:10.37,2013-06-04 11:49:00,
2013-06-04 07:54:00,53.1,43.2,30.58,WNW,286,8.1,8.1,69,0.00,FEW,,0.00,WeatherDisplay:10.37,2013-06-04 11:54:00,
2013-06-04 07:59:00,53.4,44.6,30.58,NW,314,6.0,6.0,72,0.00,FEW,,0.00,WeatherDisplay:10.37,2013-06-04 11:59:00,
2013-06-04 08:04:00,53.6,43.7,30.58,WNW,288,10.0,10.0,69,0.00,FEW,,0.00,WeatherDisplay:10.37,2013-06-04 12:04:00,
2013-06-04 08:09:00,53.6,42.5,30.58,NW,314,9.2,9.2,66,0.00,FEW,,0.00,WeatherDisplay:10.37,2013-06-04 12:09:00,
2013-06-04 08:15:00,54.0,43.3,30.58,WNW,299,6.9,6.9,67,0.00,FEW,,0.00,WeatherDisplay:10.37,2013-06-04 12:15:00,
2013-06-04 08:20:00,54.3,43.6,30.58,NW,306,3.5,3.5,67,0.00,FEW,,0.00,WeatherDisplay:10.37,2013-06-04 12:20:00,
2013-06-04 08:25:00,54.7,43.2,30.58,North,5,5.0,5.0,65,0.00,FEW,,0.00,WeatherDisplay:10.37,2013-06-04 12:25:00,
2013-06-04 08:30:00,54.8,44.4,30.58,NW,325,3.5,3.5,68,0.00,FEW,,0.00,WeatherDisplay:10.37,2013-06-04 12:30:00,
2013-06-04 08:35:00,55.3,44.9,30.58,NNW,346,4.6,4.6,68,0.00,FEW,,0.00,WeatherDisplay:10.37,2013-06-04 12:35:00,
2013-06-04 08:40:00,55.7,44.5,30.59,NW,319,6.0,6.0,66,0.00,FEW,,0.00,WeatherDisplay:10.37,2013-06-04 12:40:00,
2013-06-04 08:45:00,55.8,44.6,30.59,NW,307,4.6,4.6,66,0.00,FEW,,0.00,WeatherDisplay:10.37,2013-06-04 12:45:00,
2013-06-04 08:50:00,56.4,45.2,30.59,East,93,2.3,2.3,66,0.00,FEW,,0.00,WeatherDisplay:10.37,2013-06-04 12:50:00,
2013-06-04 08:55:00,57.0,45.7,30.59,NNW,343,3.0,3.0,66,0.00,FEW,,0.00,WeatherDisplay:10.37,2013-06-04 12:55:00,
2013-06-04 09:00:00,57.3,45.6,30.59,NNW,328,2.3,2.3,65,0.00,FEW,,0.00,WeatherDisplay:10.37,2013-06-04 13:00:00,
2013-06-04 09:05:00,57.5,46.2,30.59,NNW,338,4.0,4.0,66,0.00,CLR,,0.00,WeatherDisplay:10.37,2013-06-04 13:05:00,
2013-06-04 09:10:00,57.5,45.0,30.60,North,357,2.3,2.3,63,0.00,CLR,,0.00,WeatherDisplay:10.37,2013-06-04 13:10:00,
2013-06-04 09:15:00,57.9,44.5,30.60,WNW,283,5.8,5.8,61,0.00,CLR,,0.00,WeatherDisplay:10.37,2013-06-04 13:15:00,
2013-06-04 09:20:00,57.3,45.6,30.60,NW,314,4.6,4.6,65,0.00,CLR,,0.00,WeatherDisplay:10.37,2013-06-04 13:20:00,
2013-06-04 09:25:00,57.3,43.5,30.60,NW,317,9.2,9.2,60,0.00,CLR,,0.00,WeatherDisplay:10.37,2013-06-04 13:25:00,
2013-06-04 09:30:00,57.5,44.1,30.61,ENE,63,5.8,5.8,61,0.00,CLR,,0.00,WeatherDisplay:10.37,2013-06-04 13:30:00,
2013-06-04 09:35:00,57.7,44.3,30.61,WNW,283,4.0,4.0,61,0.00,CLR,,0.00,WeatherDisplay:10.37,2013-06-04 13:35:00,
2013-06-04 09:40:00,57.7,45.2,30.61,WNW,282,4.0,4.0,63,0.00,CLR,,0.00,WeatherDisplay:10.37,2013-06-04 13:40:00,
2013-06-04 09:45:00,57.9,47.8,30.61,NW,316,3.5,3.5,69,0.00,CLR,,0.00,WeatherDisplay:10.37,2013-06-04 13:45:00,
2013-06-04 09:50:00,57.9,45.0,30.61,NNW,343,9.2,9.2,62,0.00,CLR,,0.00,WeatherDisplay:10.37,2013-06-04 13:50:00,
2013-06-04 09:55:00,57.9,45.0,30.61,NNW,327,6.9,6.9,62,0.00,CLR,,0.00,WeatherDisplay:10.37,2013-06-04 13:55:00,
2013-06-04 10:00:00,57.8,43.1,30.61,NW,326,10.4,10.4,58,0.00,CLR,,0.00,WeatherDisplay:10.37,2013-06-04 14:00:00,
2013-06-04 10:05:00,58.0,43.7,30.61,NNW,329,5.8,5.8,59,0.00,FEW,,0.00,WeatherDisplay:10.37,2013-06-04 14:05:00,
2013-06-04 10:10:00,58.3,44.9,30.61,NW,307,4.0,4.0,61,0.00,FEW,,0.00,WeatherDisplay:10.37,2013-06-04 14:10:00,
2013-06-04 10:15:00,58.1,42.9,30.61,WSW,241,9.2,9.2,57,0.00,FEW,,0.00,WeatherDisplay:10.37,2013-06-04 14:15:00,
2013-06-04 10:20:00,57.5,41.9,30.61,West,273,11.5,11.5,56,0.00,FEW,,0.00,WeatherDisplay:10.37,2013-06-04 14:20:00,
2013-06-04 10:25:00,57.7,45.6,30.61,WNW,303,3.5,4.2,64,0.00,FEW,,0.00,WeatherDisplay:10.37,2013-06-04 14:25:00,
2013-06-04 10:30:00,57.9,42.8,30.61,NW,309,6.0,6.0,57,0.00,FEW,,0.00,WeatherDisplay:10.37,2013-06-04 14:30:00,
2013-06-04 10:35:00,57.8,42.7,30.61,NW,317,11.5,11.5,57,0.00,FEW,,0.00,WeatherDisplay:10.37,2013-06-04 14:35:00,
2013-06-04 10:40:00,57.5,42.4,30.61,NW,323,6.0,6.0,57,0.00,FEW,,0.00,WeatherDisplay:10.37,2013-06-04 14:40:00,
2013-06-04 10:45:00,57.6,42.0,30.61,WSW,254,8.1,8.1,56,0.00,FEW,,0.00,WeatherDisplay:10.37,2013-06-04 14:45:00,
2013-06-04 10:50:00,57.6,42.0,30.62,WNW,288,5.8,5.8,56,0.00,FEW,,0.00,WeatherDisplay:10.37,2013-06-04 14:50:00,
2013-06-04 10:55:00,58.1,42.5,30.62,NW,319,4.6,4.6,56,0.00,FEW,,0.00,WeatherDisplay:10.37,2013-06-04 14:55:00,
2013-06-04 11:00:00,58.4,40.8,30.62,NW,312,11.5,11.5,52,0.00,FEW,,0.00,WeatherDisplay:10.37,2013-06-04 15:00:00,
2013-06-04 11:05:00,58.2,40.6,30.62,West,267,11.5,11.5,52,0.00,FEW,,0.00,WeatherDisplay:10.37,2013-06-04 15:05:00,
2013-06-04 11:10:00,58.4,40.8,30.62,NW,313,9.2,9.2,52,0.00,FEW,,0.00,WeatherDisplay:10.37,2013-06-04 15:10:00,
2013-06-04 11:15:00,58.7,40.1,30.62,NW,316,5.8,5.8,50,0.00,FEW,,0.00,WeatherDisplay:10.37,2013-06-04 15:15:00,
2013-06-04 11:21:00,58.3,42.7,30.62,WNW,286,10.4,10.4,56,0.00,FEW,,0.00,WeatherDisplay:10.37,2013-06-04 15:21:00,
2013-06-04 11:26:00,58.2,42.1,30.62,North,352,11.5,11.5,55,0.00,FEW,,0.00,WeatherDisplay:10.37,2013-06-04 15:26:00,
2013-06-04 11:31:00,58.8,44.5,30.62,NNW,348,5.8,5.8,59,0.00,FEW,,0.00,WeatherDisplay:10.37,2013-06-04 15:31:00,
2013-06-04 11:36:00,59.0,43.3,30.62,South,182,5.8,5.8,56,0.00,FEW,,0.00,WeatherDisplay:10.37,2013-06-04 15:36:00,
2013-06-04 11:41:00,59.7,46.2,30.62,NW,317,3.5,3.5,61,0.00,FEW,,0.00,WeatherDisplay:10.37,2013-06-04 15:41:00,
2013-06-04 11:46:00,60.0,43.3,30.62,NNW,332,6.9,6.9,54,0.00,FEW,,0.00,WeatherDisplay:10.37,2013-06-04 15:46:00,
2013-06-04 11:51:00,60.0,44.7,30.62,NW,319,10.0,10.0,57,0.00,FEW,,0.00,WeatherDisplay:10.37,2013-06-04 15:51:00,
2013-06-04 11:56:00,59.5,41.3,30.62,WNW,298,8.1,8.1,51,0.00,FEW,,0.00,WeatherDisplay:10.37,2013-06-04 15:56:00,
2013-06-04 12:01:00,59.8,43.6,30.62,NW,315,6.9,6.9,55,0.00,FEW,,0.00,WeatherDisplay:10.37,2013-06-04 16:01:00,
2013-06-04 12:06:00,59.8,40.6,30.62,NW,319,3.5,3.5,49,0.00,FEW,,0.00,WeatherDisplay:10.37,2013-06-04 16:06:00,
2013-06-04 12:11:00,59.5,39.2,30.62,NW,317,10.0,10.0,47,0.00,FEW,,0.00,WeatherDisplay:10.37,2013-06-04 16:11:00,
2013-06-04 12:16:00,59.7,40.5,30.62,NW,312,11.5,11.5,49,0.00,FEW,,0.00,WeatherDisplay:10.37,2013-06-04 16:16:00,
2013-06-04 12:21:00,59.6,37.6,30.61,NW,321,11.5,11.5,44,0.00,FEW,,0.00,WeatherDisplay:10.37,2013-06-04 16:21:00,
2013-06-04 12:27:00,59.2,39.5,30.62,NW,305,11.5,11.5,48,0.00,FEW,,0.00,WeatherDisplay:10.37,2013-06-04 16:27:00,
2013-06-04 12:32:00,59.8,41.6,30.62,North,355,9.2,9.2,51,0.00,FEW,,0.00,WeatherDisplay:10.37,2013-06-04 16:32:00,
2013-06-04 12:37:00,60.5,43.3,30.62,NW,316,12.0,12.0,53,0.00,FEW,,0.00,WeatherDisplay:10.37,2013-06-04 16:37:00,
2013-06-04 12:42:00,59.9,42.2,30.61,WNW,302,9.2,9.2,52,0.00,FEW,,0.00,WeatherDisplay:10.37,2013-06-04 16:42:00,
2013-06-04 12:47:00,60.0,39.1,30.61,NNW,334,5.8,5.8,46,0.00,FEW,,0.00,WeatherDisplay:10.37,2013-06-04 16:47:00,
2013-06-04 12:52:00,60.9,44.6,30.61,NW,321,2.3,2.3,55,0.00,FEW,,0.00,WeatherDisplay:10.37,2013-06-04 16:52:00,
2013-06-04 12:57:00,61.2,41.3,30.61,NW,315,4.6,4.6,48,0.00,FEW,,0.00,WeatherDisplay:10.37,2013-06-04 16:57:00,
2013-06-04 13:02:00,61.5,39.9,30.61,West,271,5.8,5.8,45,0.00,FEW,,0.00,WeatherDisplay:10.37,2013-06-04 17:02:00,
2013-06-04 13:07:00,61.3,41.4,30.61,NNW,330,6.9,6.9,48,0.00,FEW,,0.00,WeatherDisplay:10.37,2013-06-04 17:07:00,
2013-06-04 13:12:00,61.4,39.9,30.61,WNW,298,8.1,8.1,45,0.00,FEW,,0.00,WeatherDisplay:10.37,2013-06-04 17:12:00,
2013-06-04 13:17:00,61.7,43.4,30.60,NW,310,5.8,5.8,51,0.00,FEW,,0.00,WeatherDisplay:10.37,2013-06-04 17:17:00,
2013-06-04 13:22:00,62.1,35.5,30.60,NNW,341,3.5,3.5,37,0.00,FEW,,0.00,WeatherDisplay:10.37,2013-06-04 17:22:00,
2013-06-04 13:27:00,61.5,39.4,30.60,WNW,298,6.9,6.9,44,0.00,FEW,,0.00,WeatherDisplay:10.37,2013-06-04 17:27:00,
2013-06-04 13:32:00,61.3,38.0,30.60,WNW,290,11.5,11.5,42,0.00,FEW,,0.00,WeatherDisplay:10.37,2013-06-04 17:32:00,
2013-06-04 13:37:00,61.3,37.4,30.60,NW,305,8.1,8.1,41,0.00,FEW,,0.00,WeatherDisplay:10.37,2013-06-04 17:37:00,
2013-06-04 13:42:00,61.1,35.3,30.60,NW,319,6.9,6.9,38,0.00,FEW,,0.00,WeatherDisplay:10.37,2013-06-04 17:42:00,
2013-06-04 13:47:00,61.3,38.0,30.60,NW,317,5.8,5.8,42,0.00,FEW,,0.00,WeatherDisplay:10.37,2013-06-04 17:47:00,
2013-06-04 13:52:00,62.1,41.6,30.60,NNW,333,5.8,5.8,47,0.00,FEW,,0.00,WeatherDisplay:10.37,2013-06-04 17:52:00,
2013-06-04 13:57:00,63.0,42.4,30.60,WNW,299,6.9,6.9,47,0.00,FEW,,0.00,WeatherDisplay:10.37,2013-06-04 17:57:00,
2013-06-04 14:02:00,62.7,41.0,30.59,NNW,339,3.5,3.5,45,0.00,CLR,,0.00,WeatherDisplay:10.37,2013-06-04 18:02:00,
2013-06-04 14:07:00,63.2,38.5,30.59,WNW,292,4.6,4.6,40,0.00,CLR,,0.00,WeatherDisplay:10.37,2013-06-04 18:07:00,
2013-06-04 14:12:00,63.4,39.9,30.60,NW,313,4.6,4.6,42,0.00,CLR,,0.00,WeatherDisplay:10.37,2013-06-04 18:12:00,
2013-06-04 14:17:00,63.5,41.2,30.60,NW,317,3.5,3.5,44,0.00,CLR,,0.00,WeatherDisplay:10.37,2013-06-04 18:17:00,
2013-06-04 14:22:00,64.0,41.0,30.60,NW,319,3.5,3.5,43,0.00,CLR,,0.00,WeatherDisplay:10.37,2013-06-04 18:22:00,
2013-06-04 14:28:00,63.8,40.3,30.60,North,352,5.0,5.0,42,0.00,CLR,,0.00,WeatherDisplay:10.37,2013-06-04 18:28:00,
2013-06-04 14:33:00,63.2,37.8,30.60,NNW,335,4.6,4.6,39,0.00,CLR,,0.00,WeatherDisplay:10.37,2013-06-04 18:33:00,
2013-06-04 14:38:00,63.7,39.5,30.60,NW,314,3.5,3.5,41,0.00,CLR,,0.00,WeatherDisplay:10.37,2013-06-04 18:38:00,
2013-06-04 14:43:00,64.1,40.5,30.60,WNW,287,6.9,6.9,42,0.00,CLR,,0.00,WeatherDisplay:10.37,2013-06-04 18:43:00,
2013-06-04 14:48:00,64.4,39.5,30.60,NNW,328,6.0,6.0,40,0.00,CLR,,0.00,WeatherDisplay:10.37,2013-06-04 18:48:00,
2013-06-04 14:53:00,64.2,40.6,30.60,WNW,299,4.6,4.6,42,0.00,CLR,,0.00,WeatherDisplay:10.37,2013-06-04 18:53:00,
2013-06-04 14:58:00,64.3,40.7,30.60,NNW,341,8.1,8.1,42,0.00,CLR,,0.00,WeatherDisplay:10.37,2013-06-04 18:58:00,
2013-06-04 15:03:00,63.7,41.4,30.60,ENE,70,3.5,3.5,44,0.00,CLR,,0.00,WeatherDisplay:10.37,2013-06-04 19:03:00,
2013-06-04 15:08:00,64.1,38.0,30.60,NW,321,8.0,8.0,38,0.00,CLR,,0.00,WeatherDisplay:10.37,2013-06-04 19:08:00,
2013-06-04 15:13:00,64.2,41.8,30.60,NW,309,3.5,3.5,44,0.00,CLR,,0.00,WeatherDisplay:10.37,2013-06-04 19:13:00,
2013-06-04 15:18:00,65.0,45.4,30.59,East,86,3.5,3.5,49,0.00,CLR,,0.00,WeatherDisplay:10.37,2013-06-04 19:18:00,
2013-06-04 15:23:00,65.6,43.7,30.60,NW,312,6.9,6.9,45,0.00,CLR,,0.00,WeatherDisplay:10.37,2013-06-04 19:23:00,
2013-06-04 15:28:00,65.1,40.8,30.60,NW,314,4.0,4.0,41,0.00,CLR,,0.00,WeatherDisplay:10.37,2013-06-04 19:28:00,
2013-06-04 15:33:00,65.1,44.4,30.60,NW,315,2.3,2.3,47,0.00,CLR,,0.00,WeatherDisplay:10.37,2013-06-04 19:33:00,
2013-06-04 15:38:00,64.7,37.1,30.60,WNW,303,10.4,10.4,36,0.00,CLR,,0.00,WeatherDisplay:10.37,2013-06-04 19:38:00,
2013-06-04 15:43:00,64.3,40.1,30.60,NW,326,5.8,5.8,41,0.00,CLR,,0.00,WeatherDisplay:10.37,2013-06-04 19:43:00,
2013-06-04 15:48:00,64.1,39.3,30.60,NW,317,6.9,6.9,40,0.00,CLR,,0.00,WeatherDisplay:10.37,2013-06-04 19:48:00,
2013-06-04 15:53:00,64.7,44.0,30.60,WNW,292,2.3,2.3,47,0.00,CLR,,0.00,WeatherDisplay:10.37,2013-06-04 19:53:00,
2013-06-04 15:58:00,64.7,39.8,30.60,East,84,6.9,6.9,40,0.00,CLR,,0.00,WeatherDisplay:10.37,2013-06-04 19:58:00,
2013-06-04 16:03:00,65.0,38.1,30.60,NNW,332,3.5,3.5,37,0.00,FEW,,0.00,WeatherDisplay:10.37,2013-06-04 20:03:00,
2013-06-04 16:08:00,65.5,44.2,30.60,WNW,298,3.5,3.5,46,0.00,FEW,,0.00,WeatherDisplay:10.37,2013-06-04 20:08:00,
2013-06-04 16:13:00,65.6,42.5,30.60,NW,312,9.2,9.2,43,0.00,FEW,,0.00,WeatherDisplay:10.37,2013-06-04 20:13:00,
2013-06-04 16:18:00,65.3,44.5,30.60,NW,323,4.0,4.0,47,0.00,FEW,,0.00,WeatherDisplay:10.37,2013-06-04 20:18:00,
2013-06-04 16:23:00,65.9,42.1,30.60,NNE,32,2.3,2.3,42,0.00,FEW,,0.00,WeatherDisplay:10.37,2013-06-04 20:23:00,
2013-06-04 16:28:00,65.7,43.8,30.60,NNE,23,4.6,4.6,45,0.00,FEW,,0.00,WeatherDisplay:10.37,2013-06-04 20:28:00,
2013-06-04 16:33:00,65.4,40.4,30.60,NNW,344,6.9,6.9,40,0.00,FEW,,0.00,WeatherDisplay:10.37,2013-06-04 20:33:00,
2013-06-04 16:38:00,65.5,41.2,30.60,NW,304,4.6,4.6,41,0.00,FEW,,0.00,WeatherDisplay:10.37,2013-06-04 20:38:00,
2013-06-04 16:43:00,65.8,41.4,30.60,NW,320,3.5,3.5,41,0.00,FEW,,0.00,WeatherDisplay:10.37,2013-06-04 20:43:00,
2013-06-04 16:48:00,65.8,40.1,30.60,WNW,295,3.5,3.5,39,0.00,FEW,,0.00,WeatherDisplay:10.37,2013-06-04 20:48:00,
2013-06-04 16:53:00,66.0,42.9,30.59,NW,326,3.5,3.5,43,0.00,FEW,,0.00,WeatherDisplay:10.37,2013-06-04 20:53:00,
2013-06-04 16:58:00,66.6,42.2,30.59,NNW,335,3.5,3.5,41,0.00,FEW,,0.00,WeatherDisplay:10.37,2013-06-04 20:58:00,
2013-06-04 17:03:00,66.7,45.3,30.59,NNW,328,1.2,1.2,46,0.00,FEW,,0.00,WeatherDisplay:10.37,2013-06-04 21:03:00,
2013-06-04 17:09:00,66.7,42.9,30.59,WNW,301,1.2,1.2,42,0.00,FEW,,0.00,WeatherDisplay:10.37,2013-06-04 21:09:00,
2013-06-04 17:14:00,67.1,42.6,30.59,WNW,299,3.5,3.5,41,0.00,FEW,,0.00,WeatherDisplay:10.37,2013-06-04 21:14:00,
2013-06-04 17:19:00,67.3,41.5,30.59,NNW,342,2.0,2.0,39,0.00,FEW,,0.00,WeatherDisplay:10.37,2013-06-04 21:19:00,
2013-06-04 17:24:00,67.1,43.2,30.60,NNW,336,3.5,3.5,42,0.00,FEW,,0.00,WeatherDisplay:10.37,2013-06-04 21:24:00,
2013-06-04 17:29:00,67.5,43.0,30.59,NNW,345,2.3,2.3,41,0.00,FEW,,0.00,WeatherDisplay:10.37,2013-06-04 21:29:00,
2013-06-04 17:34:00,67.2,42.0,30.59,NW,321,4.0,4.0,40,0.00,FEW,,0.00,WeatherDisplay:10.37,2013-06-04 21:34:00,
2013-06-04 17:39:00,67.1,43.8,30.60,NW,315,4.6,4.6,43,0.00,FEW,,0.00,WeatherDisplay:10.37,2013-06-04 21:39:00,
2013-06-04 17:44:00,66.9,43.7,30.59,NW,310,3.5,3.5,43,0.00,FEW,,0.00,WeatherDisplay:10.37,2013-06-04 21:44:00,
2013-06-04 17:49:00,66.9,40.5,30.59,NNW,335,2.3,2.3,38,0.00,FEW,,0.00,WeatherDisplay:10.37,2013-06-04 21:49:00,
2013-06-04 17:54:00,66.9,39.8,30.60,WNW,295,3.5,3.5,37,0.00,FEW,,0.00,WeatherDisplay:10.37,2013-06-04 21:54:00,
2013-06-04 17:59:00,66.9,41.8,30.60,West,272,5.8,5.8,40,0.00,FEW,,0.00,WeatherDisplay:10.37,2013-06-04 21:59:00,
2013-06-04 18:04:00,66.3,41.2,30.60,NW,310,8.1,8.1,40,0.00,FEW,,0.00,WeatherDisplay:10.37,2013-06-04 22:04:00,
2013-06-04 18:09:00,66.4,38.6,30.60,WNW,292,5.8,5.8,36,0.00,FEW,,0.00,WeatherDisplay:10.37,2013-06-04 22:09:00,
2013-06-04 18:14:00,66.2,37.0,30.60,WNW,293,10.4,10.4,34,0.00,FEW,,0.00,WeatherDisplay:10.37,2013-06-04 22:14:00,
2013-06-04 18:19:00,66.6,38.8,30.60,NW,309,2.3,2.3,36,0.00,FEW,,0.00,WeatherDisplay:10.37,2013-06-04 22:19:00,
2013-06-04 18:24:00,67.0,39.9,30.60,NW,312,3.5,3.5,37,0.00,FEW,,0.00,WeatherDisplay:10.37,2013-06-04 22:24:00,
2013-06-04 18:29:00,67.1,42.0,30.60,NE,56,2.0,2.0,40,0.00,FEW,,0.00,WeatherDisplay:10.37,2013-06-04 22:29:00,
2013-06-04 18:34:00,66.9,38.3,30.60,WNW,298,3.5,3.5,35,0.00,FEW,,0.00,WeatherDisplay:10.37,2013-06-04 22:34:00,
2013-06-04 18:39:00,66.7,41.6,30.61,NW,307,3.5,3.5,40,0.00,FEW,,0.00,WeatherDisplay:10.37,2013-06-04 22:39:00,
2013-06-04 18:44:00,66.4,38.6,30.61,West,276,4.6,4.6,36,0.00,FEW,,0.00,WeatherDisplay:10.37,2013-06-04 22:44:00,
2013-06-04 18:49:00,66.2,37.7,30.61,WNW,290,3.5,3.5,35,0.00,FEW,,0.00,WeatherDisplay:10.37,2013-06-04 22:49:00,
2013-06-04 18:54:00,66.2,41.8,30.61,WNW,298,5.0,5.0,41,0.00,FEW,,0.00,WeatherDisplay:10.37,2013-06-04 22:54:00,
2013-06-04 18:59:00,65.9,41.5,30.61,WNW,297,2.0,2.0,41,0.00,FEW,,0.00,WeatherDisplay:10.37,2013-06-04 22:59:00,
2013-06-04 19:04:00,65.9,40.2,30.61,NW,324,4.6,4.6,39,0.00,FEW,,0.00,WeatherDisplay:10.37,2013-06-04 23:04:00,
2013-06-04 19:09:00,65.8,38.8,30.61,West,281,3.5,3.5,37,0.00,FEW,,0.00,WeatherDisplay:10.37,2013-06-04 23:09:00,
2013-06-04 19:14:00,65.8,42.1,30.61,WNW,284,1.2,1.2,42,0.00,FEW,,0.00,WeatherDisplay:10.37,2013-06-04 23:14:00,
2013-06-04 19:19:00,65.6,42.5,30.61,NW,313,3.5,3.5,43,0.00,FEW,,0.00,WeatherDisplay:10.37,2013-06-04 23:19:00,
2013-06-04 19:24:00,66.0,41.6,30.61,NW,313,1.2,1.2,41,0.00,FEW,,0.00,WeatherDisplay:10.37,2013-06-04 23:24:00,
2013-06-04 19:29:00,66.5,43.9,30.61,NW,308,2.3,0.0,44,0.00,FEW,,0.00,WeatherDisplay:10.37,2013-06-04 23:29:00,
2013-06-04 19:34:00,66.9,45.4,30.61,NNW,344,1.2,0.0,46,0.00,FEW,,0.00,WeatherDisplay:10.37,2013-06-04 23:34:00,
2013-06-04 19:39:00,66.7,41.6,30.61,WNW,301,1.0,1.0,40,0.00,FEW,,0.00,WeatherDisplay:10.37,2013-06-04 23:39:00,
2013-06-04 19:44:00,66.4,43.8,30.62,WNW,302,1.2,0.0,44,0.00,FEW,,0.00,WeatherDisplay:10.37,2013-06-04 23:44:00,
2013-06-04 19:49:00,66.0,46.8,30.62,WNW,301,0.0,0.0,50,0.00,FEW,,0.00,WeatherDisplay:10.37,2013-06-04 23:49:00,
2013-06-04 19:54:00,66.0,47.3,30.62,WNW,301,0.0,0.0,51,0.00,FEW,,0.00,WeatherDisplay:10.37,2013-06-04 23:54:00,
2013-06-04 19:59:00,65.7,46.0,30.62,WNW,301,0.0,0.0,49,0.00,FEW,,0.00,WeatherDisplay:10.37,2013-06-04 23:59:00,
2013-06-04 20:04:00,64.8,44.6,30.62,WNW,301,1.2,0.0,48,0.00,FEW,,0.00,WeatherDisplay:10.37,2013-06-05 00:04:00,
2013-06-04 20:09:00,64.0,42.2,30.62,WNW,302,2.3,0.0,45,0.00,FEW,,0.00,WeatherDisplay:10.37,2013-06-05 00:09:00,
2013-06-04 20:14:00,62.9,42.4,30.62,WNW,286,1.2,1.2,47,0.00,FEW,,0.00,WeatherDisplay:10.37,2013-06-05 00:14:00,
2013-06-04 20:19:00,62.0,42.6,30.62,WNW,286,1.2,0.0,49,0.00,FEW,,0.00,WeatherDisplay:10.37,2013-06-05 00:19:00,
2013-06-04 20:25:00,61.2,43.4,30.62,WNW,286,0.0,0.0,52,0.00,FEW,,0.00,WeatherDisplay:10.37,2013-06-05 00:25:00,
2013-06-04 20:30:00,60.6,42.9,30.62,WNW,286,1.2,0.0,52,0.00,FEW,,0.00,WeatherDisplay:10.37,2013-06-05 00:30:00,
2013-06-04 20:35:00,59.7,44.4,30.62,WNW,286,0.0,0.0,57,0.00,FEW,,0.00,WeatherDisplay:10.37,2013-06-05 00:35:00,
2013-06-04 20:40:00,58.9,42.3,30.62,WNW,297,2.3,2.3,54,0.00,FEW,,0.00,WeatherDisplay:10.37,2013-06-05 00:40:00,
2013-06-04 20:45:00,58.7,41.1,30.62,WNW,297,0.0,0.0,52,0.00,FEW,,0.00,WeatherDisplay:10.37,2013-06-05 00:45:00,
2013-06-04 20:50:00,58.3,43.1,30.63,WNW,297,0.0,0.0,57,0.00,FEW,,0.00,WeatherDisplay:10.37,2013-06-05 00:50:00,
2013-06-04 20:55:00,57.7,42.1,30.63,WNW,297,0.0,0.0,56,0.00,FEW,,0.00,WeatherDisplay:10.37,2013-06-05 00:55:00,
2013-06-04 21:00:00,57.0,41.9,30.63,WNW,297,0.0,0.0,57,0.00,FEW,,0.00,WeatherDisplay:10.37,2013-06-05 01:00:00,
2013-06-04 21:05:00,56.1,43.3,30.63,WNW,297,0.0,0.0,62,0.00,FEW,,0.00,WeatherDisplay:10.37,2013-06-05 01:05:00,
2013-06-04 21:10:00,55.0,44.2,30.63,WNW,297,0.0,0.0,67,0.00,FEW,,0.00,WeatherDisplay:10.37,2013-06-05 01:10:00,
2013-06-04 21:15:00,54.8,42.4,30.63,WNW,297,0.0,0.0,63,0.00,FEW,,0.00,WeatherDisplay:10.37,2013-06-05 01:15:00,
2013-06-04 21:20:00,54.8,43.3,30.63,WNW,297,0.0,0.0,65,0.00,FEW,,0.00,WeatherDisplay:10.37,2013-06-05 01:20:00,
2013-06-04 21:25:00,54.3,45.5,30.63,WNW,297,0.0,0.0,72,0.00,FEW,,0.00,WeatherDisplay:10.37,2013-06-05 01:25:00,
2013-06-04 21:30:00,53.6,45.9,30.63,WNW,297,0.0,0.0,75,0.00,FEW,,0.00,WeatherDisplay:10.37,2013-06-05 01:30:00,
2013-06-04 21:35:00,52.8,41.7,30.63,WNW,297,0.0,0.0,66,0.00,FEW,,0.00,WeatherDisplay:10.37,2013-06-05 01:35:00,
2013-06-04 21:40:00,52.7,41.7,30.63,WNW,297,0.0,0.0,66,0.00,FEW,,0.00,WeatherDisplay:10.37,2013-06-05 01:40:00,
2013-06-04 21:45:00,52.2,42.3,30.64,WNW,297,0.0,0.0,69,0.00,FEW,,0.00,WeatherDisplay:10.37,2013-06-05 01:45:00,
2013-06-04 21:50:00,51.6,44.3,30.64,WNW,297,0.0,0.0,76,0.00,FEW,,0.00,WeatherDisplay:10.37,2013-06-05 01:50:00,
2013-06-04 21:55:00,50.9,43.6,30.64,WNW,297,0.0,0.0,76,0.00,FEW,,0.00,WeatherDisplay:10.37,2013-06-05 01:55:00,
2013-06-04 22:00:00,50.2,42.9,30.64,WNW,297,0.0,0.0,76,0.00,FEW,,0.00,WeatherDisplay:10.37,2013-06-05 02:00:00,
2013-06-04 22:05:00,49.8,43.2,30.63,WNW,297,0.0,0.0,78,0.00,FEW,,0.00,WeatherDisplay:10.37,2013-06-05 02:05:00,
2013-06-04 22:10:00,49.4,43.8,30.64,WNW,297,0.0,0.0,81,0.00,FEW,,0.00,WeatherDisplay:10.37,2013-06-05 02:10:00,
2013-06-04 22:15:00,49.1,44.2,30.64,WNW,297,0.0,0.0,83,0.00,FEW,,0.00,WeatherDisplay:10.37,2013-06-05 02:15:00,
2013-06-04 22:20:00,48.8,43.5,30.64,WNW,297,0.0,0.0,82,0.00,FEW,,0.00,WeatherDisplay:10.37,2013-06-05 02:20:00,
2013-06-04 22:25:00,48.5,43.6,30.64,WNW,297,0.0,0.0,83,0.00,FEW,,0.00,WeatherDisplay:10.37,2013-06-05 02:25:00,
2013-06-04 22:30:00,48.3,43.4,30.64,WNW,297,0.0,0.0,83,0.00,FEW,,0.00,WeatherDisplay:10.37,2013-06-05 02:30:00,
2013-06-04 22:35:00,48.0,44.0,30.64,WNW,297,0.0,0.0,86,0.00,FEW,,0.00,WeatherDisplay:10.37,2013-06-05 02:35:00,
2013-06-04 22:40:00,47.7,43.7,30.64,WNW,297,0.0,0.0,86,0.00,FEW,,0.00,WeatherDisplay:10.37,2013-06-05 02:40:00,
2013-06-04 22:45:00,47.6,43.3,30.64,WNW,297,0.0,0.0,85,0.00,FEW,,0.00,WeatherDisplay:10.37,2013-06-05 02:45:00,
2013-06-04 22:50:00,47.9,43.9,30.64,WNW,297,0.0,0.0,86,0.00,FEW,,0.00,WeatherDisplay:10.37,2013-06-05 02:50:00,
2013-06-04 22:55:00,48.4,43.8,30.64,WNW,297,0.0,0.0,84,0.00,FEW,,0.00,WeatherDisplay:10.37,2013-06-05 02:55:00,
2013-06-04 23:00:00,48.2,43.6,30.64,WNW,297,0.0,0.0,84,0.00,FEW,,0.00,WeatherDisplay:10.37,2013-06-05 03:00:00,
2013-06-04 23:05:00,48.0,43.1,30.64,WNW,297,0.0,0.0,83,0.00,BKN,,0.00,WeatherDisplay:10.37,2013-06-05 03:05:00,
2013-06-04 23:10:00,47.8,43.8,30.64,WNW,297,0.0,0.0,86,0.00,BKN,,0.00,WeatherDisplay:10.37,2013-06-05 03:10:00,
2013-06-04 23:15:00,47.7,44.6,30.64,WNW,297,0.0,0.0,89,0.00,BKN,,0.00,WeatherDisplay:10.37,2013-06-05 03:15:00,
2013-06-04 23:20:00,47.8,45.3,30.64,WNW,297,0.0,0.0,91,0.00,BKN,,0.00,WeatherDisplay:10.37,2013-06-05 03:20:00,
2013-06-04 23:25:00,47.6,45.1,30.64,WNW,297,0.0,0.0,91,0.00,BKN,,0.00,WeatherDisplay:10.37,2013-06-05 03:25:00,
2013-06-04 23:30:00,47.6,44.8,30.64,WNW,297,0.0,0.0,90,0.00,BKN,,0.00,WeatherDisplay:10.37,2013-06-05 03:30:00,
2013-06-04 23:35:00,48.1,44.4,30.64,WNW,297,0.0,0.0,87,0.00,BKN,,0.00,WeatherDisplay:10.37,2013-06-05 03:35:00,
2013-06-04 23:40:00,48.3,44.3,30.64,WNW,297,0.0,0.0,86,0.00,BKN,,0.00,WeatherDisplay:10.37,2013-06-05 03:40:00,
2013-06-04 23:45:00,48.4,44.4,30.64,WNW,297,0.0,0.0,86,0.00,BKN,,0.00,WeatherDisplay:10.37,2013-06-05 03:45:00,
2013-06-04 23:50:00,48.4,45.0,30.64,WNW,297,0.0,0.0,88,0.00,BKN,,0.00,WeatherDisplay:10.37,2013-06-05 03:50:00,
2013-06-04 23:55:00,48.4,45.9,30.64,WNW,297,0.0,0.0,91,0.00,BKN,,0.00,WeatherDisplay:10.37,2013-06-05 03:55:00,